sensor_id;sensor_type;location;lat;lon;timestamp;pressure;altitude;pressure_sealevel;temperature;humidity
6208;BME280;3137;51.550;7.060;2024-01-10T00:02:19;102796.69;;;-4.50;54.16
6208;BME280;3137;51.550;7.060;2024-01-10T00:04:46;102794.03;;;-4.44;53.82
6208;BME280;3137;51.550;7.060;2024-01-10T00:07:13;102794.97;;;-4.54;54.35
6208;BME280;3137;51.550;7.060;2024-01-10T00:09:39;102792.31;;;-4.45;53.37
6208;BME280;3137;51.550;7.060;2024-01-10T00:12:06;102786.28;;;-4.55;54.25
6208;BME280;3137;51.550;7.060;2024-01-10T00:14:32;102788.03;;;-4.65;54.41
6208;BME280;3137;51.550;7.060;2024-01-10T00:16:59;102788.06;;;-4.69;54.50
6208;BME280;3137;51.550;7.060;2024-01-10T00:19:25;102787.16;;;-4.67;54.81
6208;BME280;3137;51.550;7.060;2024-01-10T00:21:51;102770.66;;;-4.73;55.23
6208;BME280;3137;51.550;7.060;2024-01-10T00:24:19;102771.56;;;-4.82;55.84
6208;BME280;3137;51.550;7.060;2024-01-10T00:26:45;102771.59;;;-4.85;55.93
6208;BME280;3137;51.550;7.060;2024-01-10T00:29:12;102773.34;;;-4.84;56.58
6208;BME280;3137;51.550;7.060;2024-01-10T00:31:39;102769.84;;;-4.95;57.17
6208;BME280;3137;51.550;7.060;2024-01-10T00:34:05;102772.47;;;-4.95;57.89
6208;BME280;3137;51.550;7.060;2024-01-10T00:36:32;102769.00;;;-4.97;57.83
6208;BME280;3137;51.550;7.060;2024-01-10T00:38:58;102770.72;;;-4.94;58.02
6208;BME280;3137;51.550;7.060;2024-01-10T00:41:25;102773.38;;;-5.07;59.12
6208;BME280;3137;51.550;7.060;2024-01-10T00:43:51;102767.28;;;-5.02;58.65
6208;BME280;3137;51.550;7.060;2024-01-10T00:46:17;102765.56;;;-5.05;58.58
6208;BME280;3137;51.550;7.060;2024-01-10T00:48:44;102768.16;;;-5.17;59.59
6208;BME280;3137;51.550;7.060;2024-01-10T00:51:11;102771.63;;;-5.21;59.96
6208;BME280;3137;51.550;7.060;2024-01-10T00:53:37;102775.13;;;-5.25;59.93
6208;BME280;3137;51.550;7.060;2024-01-10T00:56:08;102758.59;;;-5.21;60.23
6208;BME280;3137;51.550;7.060;2024-01-10T00:58:35;102758.63;;;-5.20;59.95
6208;BME280;3137;51.550;7.060;2024-01-10T01:01:02;102765.56;;;-5.25;59.93
6208;BME280;3137;51.550;7.060;2024-01-10T01:03:28;102761.25;;;-5.27;60.57
6208;BME280;3137;51.550;7.060;2024-01-10T01:05:55;102758.66;;;-5.35;60.41
6208;BME280;3137;51.550;7.060;2024-01-10T01:08:21;102756.88;;;-5.37;60.03
6208;BME280;3137;51.550;7.060;2024-01-10T01:10:48;102762.97;;;-5.38;60.50
6208;BME280;3137;51.550;7.060;2024-01-10T01:13:14;102751.69;;;-5.37;60.97
6208;BME280;3137;51.550;7.060;2024-01-10T01:15:41;102746.47;;;-5.42;60.39
6208;BME280;3137;51.550;7.060;2024-01-10T01:18:07;102758.63;;;-5.55;61.00
6208;BME280;3137;51.550;7.060;2024-01-10T01:20:36;102756.03;;;-5.45;61.85
6208;BME280;3137;51.550;7.060;2024-01-10T01:23:02;102749.09;;;-5.49;61.79
6208;BME280;3137;51.550;7.060;2024-01-10T01:25:29;102755.19;;;-5.57;62.06
6208;BME280;3137;51.550;7.060;2024-01-10T01:27:55;102753.44;;;-5.62;62.82
6208;BME280;3137;51.550;7.060;2024-01-10T01:30:22;102745.63;;;-5.65;62.02
6208;BME280;3137;51.550;7.060;2024-01-10T01:32:48;102746.50;;;-5.53;61.88
6208;BME280;3137;51.550;7.060;2024-01-10T01:35:15;102743.88;;;-5.57;62.18
6208;BME280;3137;51.550;7.060;2024-01-10T01:37:48;102740.41;;;-5.70;62.47
6208;BME280;3137;51.550;7.060;2024-01-10T01:40:15;102742.13;;;-5.67;62.76
6208;BME280;3137;51.550;7.060;2024-01-10T01:42:44;102743.00;;;-5.64;62.94
6208;BME280;3137;51.550;7.060;2024-01-10T01:45:11;102742.13;;;-5.60;63.02
6208;BME280;3137;51.550;7.060;2024-01-10T01:47:38;102727.38;;;-5.61;62.51
6208;BME280;3137;51.550;7.060;2024-01-10T01:50:06;102732.59;;;-5.65;63.58
6208;BME280;3137;51.550;7.060;2024-01-10T01:52:33;102735.19;;;-5.64;63.37
6208;BME280;3137;51.550;7.060;2024-01-10T01:55:01;102735.19;;;-5.71;63.61
6208;BME280;3137;51.550;7.060;2024-01-10T01:57:28;102736.06;;;-5.75;63.59
6208;BME280;3137;51.550;7.060;2024-01-10T01:59:55;102735.19;;;-5.67;64.00
6208;BME280;3137;51.550;7.060;2024-01-10T02:02:21;102728.25;;;-5.75;63.70
6208;BME280;3137;51.550;7.060;2024-01-10T02:04:48;102723.91;;;-5.78;63.79
6208;BME280;3137;51.550;7.060;2024-01-10T02:07:14;102719.56;;;-5.80;63.56
6208;BME280;3137;51.550;7.060;2024-01-10T02:09:41;102717.81;;;-5.80;63.96
6208;BME280;3137;51.550;7.060;2024-01-10T02:12:07;102720.44;;;-5.83;63.98
6208;BME280;3137;51.550;7.060;2024-01-10T02:14:34;102716.09;;;-5.82;63.99
6208;BME280;3137;51.550;7.060;2024-01-10T02:17:00;102719.59;;;-5.88;64.20
6208;BME280;3137;51.550;7.060;2024-01-10T02:19:27;102725.66;;;-5.92;65.13
6208;BME280;3137;51.550;7.060;2024-01-10T02:21:55;102725.66;;;-5.83;64.81
6208;BME280;3137;51.550;7.060;2024-01-10T02:24:22;102721.34;;;-5.90;64.53
6208;BME280;3137;51.550;7.060;2024-01-10T02:26:48;102719.56;;;-5.94;64.95
6208;BME280;3137;51.550;7.060;2024-01-10T02:29:16;102718.72;;;-5.97;64.86
6208;BME280;3137;51.550;7.060;2024-01-10T02:31:42;102706.59;;;-5.98;65.49
6208;BME280;3137;51.550;7.060;2024-01-10T02:34:09;102710.91;;;-5.94;64.71
6208;BME280;3137;51.550;7.060;2024-01-10T02:36:35;102705.69;;;-5.97;65.42
6208;BME280;3137;51.550;7.060;2024-01-10T02:39:02;102704.84;;;-5.99;65.60
6208;BME280;3137;51.550;7.060;2024-01-10T02:41:29;102698.75;;;-5.95;65.05
6208;BME280;3137;51.550;7.060;2024-01-10T02:43:55;102708.28;;;-5.97;65.09
6208;BME280;3137;51.550;7.060;2024-01-10T02:46:25;102716.97;;;-6.08;65.63
6208;BME280;3137;51.550;7.060;2024-01-10T02:48:54;102717.84;;;-6.09;65.83
6208;BME280;3137;51.550;7.060;2024-01-10T02:51:21;102713.50;;;-6.13;65.92
6208;BME280;3137;51.550;7.060;2024-01-10T02:53:49;102709.13;;;-6.15;66.05
6208;BME280;3137;51.550;7.060;2024-01-10T02:56:15;102695.28;;;-6.11;65.88
6208;BME280;3137;51.550;7.060;2024-01-10T02:58:41;102706.56;;;-6.09;65.98
6208;BME280;3137;51.550;7.060;2024-01-10T03:01:08;102711.75;;;-6.18;66.00
6208;BME280;3137;51.550;7.060;2024-01-10T03:03:35;102706.53;;;-6.15;66.68
6208;BME280;3137;51.550;7.060;2024-01-10T03:06:02;102703.97;;;-6.12;66.48
6208;BME280;3137;51.550;7.060;2024-01-10T03:08:28;102704.81;;;-6.28;66.66
6208;BME280;3137;51.550;7.060;2024-01-10T03:10:55;102699.59;;;-6.21;66.42
6208;BME280;3137;51.550;7.060;2024-01-10T03:13:21;102698.72;;;-6.23;66.79
6208;BME280;3137;51.550;7.060;2024-01-10T03:15:48;102702.19;;;-6.25;66.78
6208;BME280;3137;51.550;7.060;2024-01-10T03:18:14;102690.03;;;-6.23;67.11
6208;BME280;3137;51.550;7.060;2024-01-10T03:20:41;102695.25;;;-6.23;67.50
6208;BME280;3137;51.550;7.060;2024-01-10T03:23:07;102688.31;;;-6.24;66.79
6208;BME280;3137;51.550;7.060;2024-01-10T03:25:34;102683.97;;;-6.28;66.85
6208;BME280;3137;51.550;7.060;2024-01-10T03:28:00;102684.81;;;-6.31;67.62
6208;BME280;3137;51.550;7.060;2024-01-10T03:30:26;102674.44;;;-6.25;67.27
6208;BME280;3137;51.550;7.060;2024-01-10T03:32:53;102673.56;;;-6.33;67.73
6208;BME280;3137;51.550;7.060;2024-01-10T03:35:20;102669.22;;;-6.34;67.29
6208;BME280;3137;51.550;7.060;2024-01-10T03:37:46;102676.16;;;-6.37;67.63
6208;BME280;3137;51.550;7.060;2024-01-10T03:40:13;102670.94;;;-6.34;67.88
6208;BME280;3137;51.550;7.060;2024-01-10T03:42:39;102669.25;;;-6.25;67.65
6208;BME280;3137;51.550;7.060;2024-01-10T03:45:05;102670.97;;;-6.21;67.10
6208;BME280;3137;51.550;7.060;2024-01-10T03:47:32;102670.09;;;-6.26;67.20
6208;BME280;3137;51.550;7.060;2024-01-10T03:49:58;102667.47;;;-6.32;67.89
6208;BME280;3137;51.550;7.060;2024-01-10T03:52:25;102669.22;;;-6.29;68.40
6208;BME280;3137;51.550;7.060;2024-01-10T03:54:52;102675.28;;;-6.15;67.08
6208;BME280;3137;51.550;7.060;2024-01-10T03:57:18;102674.44;;;-6.26;67.69
6208;BME280;3137;51.550;7.060;2024-01-10T03:59:44;102677.91;;;-6.24;67.24
6208;BME280;3137;51.550;7.060;2024-01-10T04:02:11;102677.03;;;-6.26;67.34
6208;BME280;3137;51.550;7.060;2024-01-10T04:04:37;102676.16;;;-6.25;67.65
6208;BME280;3137;51.550;7.060;2024-01-10T04:07:06;102676.16;;;-6.33;67.95
6208;BME280;3137;51.550;7.060;2024-01-10T04:09:32;102673.56;;;-6.30;67.77
6208;BME280;3137;51.550;7.060;2024-01-10T04:11:58;102687.44;;;-6.32;67.63
6208;BME280;3137;51.550;7.060;2024-01-10T04:14:25;102680.47;;;-6.35;67.78
6208;BME280;3137;51.550;7.060;2024-01-10T04:16:53;102683.97;;;-6.34;67.96
6208;BME280;3137;51.550;7.060;2024-01-10T04:19:19;102676.13;;;-6.43;67.89
6208;BME280;3137;51.550;7.060;2024-01-10T04:21:47;102672.69;;;-6.38;67.78
6208;BME280;3137;51.550;7.060;2024-01-10T04:24:13;102680.47;;;-6.44;67.80
6208;BME280;3137;51.550;7.060;2024-01-10T04:26:39;102670.91;;;-6.40;67.42
6208;BME280;3137;51.550;7.060;2024-01-10T04:29:06;102673.53;;;-6.45;67.98
6208;BME280;3137;51.550;7.060;2024-01-10T04:31:32;102675.28;;;-6.41;68.28
6208;BME280;3137;51.550;7.060;2024-01-10T04:33:59;102678.75;;;-6.50;67.98
6208;BME280;3137;51.550;7.060;2024-01-10T04:36:25;102673.53;;;-6.45;68.38
6208;BME280;3137;51.550;7.060;2024-01-10T04:38:52;102674.41;;;-6.46;68.00
6208;BME280;3137;51.550;7.060;2024-01-10T04:41:18;102676.13;;;-6.51;67.89
6208;BME280;3137;51.550;7.060;2024-01-10T04:43:45;102679.59;;;-6.48;68.01
6208;BME280;3137;51.550;7.060;2024-01-10T04:46:11;102686.50;;;-6.53;68.15
6208;BME280;3137;51.550;7.060;2024-01-10T04:48:38;102683.06;;;-6.52;68.06
6208;BME280;3137;51.550;7.060;2024-01-10T04:51:04;102679.59;;;-6.44;67.49
6208;BME280;3137;51.550;7.060;2024-01-10T04:53:31;102680.47;;;-6.44;67.58
6208;BME280;3137;51.550;7.060;2024-01-10T04:55:57;102676.13;;;-6.43;67.40
6208;BME280;3137;51.550;7.060;2024-01-10T04:58:24;102672.66;;;-6.58;68.19
6208;BME280;3137;51.550;7.060;2024-01-10T05:00:50;102676.13;;;-6.47;67.98
6208;BME280;3137;51.550;7.060;2024-01-10T05:03:17;102675.25;;;-6.50;67.77
6208;BME280;3137;51.550;7.060;2024-01-10T05:05:43;102669.19;;;-6.52;68.05
6208;BME280;3137;51.550;7.060;2024-01-10T05:08:10;102664.84;;;-6.50;67.97
6208;BME280;3137;51.550;7.060;2024-01-10T05:10:36;102667.44;;;-6.59;68.28
6208;BME280;3137;51.550;7.060;2024-01-10T05:13:03;102664.84;;;-6.58;67.83
6208;BME280;3137;51.550;7.060;2024-01-10T05:15:29;102666.53;;;-6.66;68.15
6208;BME280;3137;51.550;7.060;2024-01-10T05:17:56;102666.53;;;-6.61;68.44
6208;BME280;3137;51.550;7.060;2024-01-10T05:20:22;102657.06;;;-6.50;67.55
6208;BME280;3137;51.550;7.060;2024-01-10T05:22:49;102657.88;;;-6.65;68.12
6208;BME280;3137;51.550;7.060;2024-01-10T05:25:15;102672.63;;;-6.61;68.07
6208;BME280;3137;51.550;7.060;2024-01-10T05:27:44;102667.41;;;-6.64;68.85
6208;BME280;3137;51.550;7.060;2024-01-10T05:30:11;102675.19;;;-6.76;68.85
6208;BME280;3137;51.550;7.060;2024-01-10T05:32:39;102669.97;;;-6.79;68.65
6208;BME280;3137;51.550;7.060;2024-01-10T05:35:05;102670.00;;;-6.70;68.75
6208;BME280;3137;51.550;7.060;2024-01-10T05:37:32;102660.47;;;-6.69;68.72
6208;BME280;3137;51.550;7.060;2024-01-10T05:39:59;102654.44;;;-6.59;68.29
6208;BME280;3137;51.550;7.060;2024-01-10T05:42:25;102641.41;;;-6.64;68.88
6208;BME280;3137;51.550;7.060;2024-01-10T05:44:52;102658.72;;;-6.69;68.74
6208;BME280;3137;51.550;7.060;2024-01-10T05:47:19;102661.31;;;-6.66;68.81
6208;BME280;3137;51.550;7.060;2024-01-10T05:49:45;102654.41;;;-6.53;67.91
6208;BME280;3137;51.550;7.060;2024-01-10T05:52:12;102648.38;;;-6.55;67.60
6208;BME280;3137;51.550;7.060;2024-01-10T05:54:38;102661.34;;;-6.60;68.27
6208;BME280;3137;51.550;7.060;2024-01-10T05:57:05;102670.03;;;-6.64;68.47
6208;BME280;3137;51.550;7.060;2024-01-10T05:59:32;102660.50;;;-6.63;68.64
6208;BME280;3137;51.550;7.060;2024-01-10T06:01:58;102659.63;;;-6.59;68.51
6208;BME280;3137;51.550;7.060;2024-01-10T06:04:25;102658.75;;;-6.67;68.87
6208;BME280;3137;51.550;7.060;2024-01-10T06:06:51;102661.34;;;-6.67;69.11
6208;BME280;3137;51.550;7.060;2024-01-10T06:09:18;102657.03;;;-6.59;68.81
6208;BME280;3137;51.550;7.060;2024-01-10T06:11:48;102653.56;;;-6.60;68.95
6208;BME280;3137;51.550;7.060;2024-01-10T06:14:15;102653.56;;;-6.49;68.82
6208;BME280;3137;51.550;7.060;2024-01-10T06:16:41;102655.28;;;-6.53;68.72
6208;BME280;3137;51.550;7.060;2024-01-10T06:19:07;102650.97;;;-6.51;68.25
6208;BME280;3137;51.550;7.060;2024-01-10T06:21:34;102660.50;;;-6.53;68.47
6208;BME280;3137;51.550;7.060;2024-01-10T06:24:01;102655.28;;;-6.53;68.13
6208;BME280;3137;51.550;7.060;2024-01-10T06:26:28;102652.69;;;-6.56;68.21
6208;BME280;3137;51.550;7.060;2024-01-10T06:28:55;102647.50;;;-6.40;67.60
6208;BME280;3137;51.550;7.060;2024-01-10T06:31:21;102645.78;;;-6.51;68.30
6208;BME280;3137;51.550;7.060;2024-01-10T06:33:48;102644.06;;;-6.42;67.65
6208;BME280;3137;51.550;7.060;2024-01-10T06:36:14;102635.38;;;-6.48;68.31
6208;BME280;3137;51.550;7.060;2024-01-10T06:38:40;102646.63;;;-6.56;68.69
6208;BME280;3137;51.550;7.060;2024-01-10T06:41:10;102651.00;;;-6.46;67.70
6208;BME280;3137;51.550;7.060;2024-01-10T06:43:40;102650.13;;;-6.50;68.22
6208;BME280;3137;51.550;7.060;2024-01-10T06:46:09;102642.31;;;-6.43;68.18
6208;BME280;3137;51.550;7.060;2024-01-10T06:48:37;102656.19;;;-6.46;68.18
6208;BME280;3137;51.550;7.060;2024-01-10T06:51:14;102656.19;;;-6.46;68.64
6208;BME280;3137;51.550;7.060;2024-01-10T06:53:41;102651.84;;;-6.42;68.24
6208;BME280;3137;51.550;7.060;2024-01-10T06:56:09;102662.25;;;-6.55;68.54
6208;BME280;3137;51.550;7.060;2024-01-10T06:58:36;102660.50;;;-6.53;68.98
6208;BME280;3137;51.550;7.060;2024-01-10T07:01:02;102650.09;;;-6.53;68.79
6208;BME280;3137;51.550;7.060;2024-01-10T07:03:31;102657.91;;;-6.51;68.38
6208;BME280;3137;51.550;7.060;2024-01-10T07:05:58;102654.47;;;-6.35;67.96
6208;BME280;3137;51.550;7.060;2024-01-10T07:08:25;102650.97;;;-6.48;68.39
6208;BME280;3137;51.550;7.060;2024-01-10T07:10:52;102655.34;;;-6.45;68.70
6208;BME280;3137;51.550;7.060;2024-01-10T07:13:22;102657.94;;;-6.45;69.11
6208;BME280;3137;51.550;7.060;2024-01-10T07:15:48;102655.31;;;-6.47;68.19
6208;BME280;3137;51.550;7.060;2024-01-10T07:18:17;102653.59;;;-6.38;68.10
6208;BME280;3137;51.550;7.060;2024-01-10T07:20:43;102652.72;;;-6.43;68.11
6208;BME280;3137;51.550;7.060;2024-01-10T07:23:09;102659.66;;;-6.50;68.05
6208;BME280;3137;51.550;7.060;2024-01-10T07:25:36;102658.78;;;-6.48;68.00
6208;BME280;3137;51.550;7.060;2024-01-10T07:28:03;102656.19;;;-6.44;68.29
6208;BME280;3137;51.550;7.060;2024-01-10T07:30:30;102654.47;;;-6.41;67.91
6208;BME280;3137;51.550;7.060;2024-01-10T07:32:59;102648.38;;;-6.44;67.67
6208;BME280;3137;51.550;7.060;2024-01-10T07:35:26;102654.47;;;-6.32;67.89
6208;BME280;3137;51.550;7.060;2024-01-10T07:37:54;102657.06;;;-6.36;67.74
6208;BME280;3137;51.550;7.060;2024-01-10T07:40:20;102651.00;;;-6.38;68.04
6208;BME280;3137;51.550;7.060;2024-01-10T07:42:47;102655.34;;;-6.33;68.17
6208;BME280;3137;51.550;7.060;2024-01-10T07:45:13;102659.66;;;-6.36;67.74
6208;BME280;3137;51.550;7.060;2024-01-10T07:47:40;102663.16;;;-6.21;67.26
6208;BME280;3137;51.550;7.060;2024-01-10T07:50:10;102659.69;;;-6.24;67.71
6208;BME280;3137;51.550;7.060;2024-01-10T07:52:38;102665.75;;;-6.30;68.02
6208;BME280;3137;51.550;7.060;2024-01-10T07:55:06;102657.06;;;-6.32;67.97
6208;BME280;3137;51.550;7.060;2024-01-10T07:57:34;102652.75;;;-6.30;68.39
6208;BME280;3137;51.550;7.060;2024-01-10T08:00:02;102654.47;;;-6.23;67.16
6208;BME280;3137;51.550;7.060;2024-01-10T08:02:34;102655.34;;;-6.19;67.40
6208;BME280;3137;51.550;7.060;2024-01-10T08:05:02;102642.34;;;-6.24;67.26
6208;BME280;3137;51.550;7.060;2024-01-10T08:07:32;102646.69;;;-6.18;67.42
6208;BME280;3137;51.550;7.060;2024-01-10T08:10:07;102639.75;;;-6.09;66.76
6208;BME280;3137;51.550;7.060;2024-01-10T08:12:38;102648.44;;;-6.16;66.70
6208;BME280;3137;51.550;7.060;2024-01-10T08:15:05;102639.72;;;-6.06;66.59
6208;BME280;3137;51.550;7.060;2024-01-10T08:17:35;102645.81;;;-6.01;66.27
6208;BME280;3137;51.550;7.060;2024-01-10T08:20:07;102645.75;;;-5.85;65.97
6208;BME280;3137;51.550;7.060;2024-01-10T08:22:34;102642.34;;;-5.92;65.94
6208;BME280;3137;51.550;7.060;2024-01-10T08:25:01;102647.56;;;-5.92;66.03
6208;BME280;3137;51.550;7.060;2024-01-10T08:27:29;102650.97;;;-5.85;65.99
6208;BME280;3137;51.550;7.060;2024-01-10T08:29:55;102646.66;;;-5.82;65.11
6208;BME280;3137;51.550;7.060;2024-01-10T08:32:21;102652.69;;;-5.77;65.72
6208;BME280;3137;51.550;7.060;2024-01-10T08:34:48;102653.56;;;-5.76;65.71
6208;BME280;3137;51.550;7.060;2024-01-10T08:37:15;102644.03;;;-5.70;65.56
6208;BME280;3137;51.550;7.060;2024-01-10T08:39:43;102651.84;;;-5.70;65.58
6208;BME280;3137;51.550;7.060;2024-01-10T08:42:10;102644.84;;;-5.56;64.95
6208;BME280;3137;51.550;7.060;2024-01-10T08:44:40;102645.72;;;-5.44;65.17
6208;BME280;3137;51.550;7.060;2024-01-10T08:47:06;102645.72;;;-5.40;64.53
6208;BME280;3137;51.550;7.060;2024-01-10T08:49:33;102643.97;;;-5.35;63.93
6208;BME280;3137;51.550;7.060;2024-01-10T08:51:59;102644.81;;;-5.22;64.22
6208;BME280;3137;51.550;7.060;2024-01-10T08:54:26;102643.91;;;-5.21;63.46
6208;BME280;3137;51.550;7.060;2024-01-10T08:56:53;102651.72;;;-5.20;62.23
6208;BME280;3137;51.550;7.060;2024-01-10T08:59:19;102662.16;;;-5.18;62.60
6208;BME280;3137;51.550;7.060;2024-01-10T09:01:46;102660.38;;;-5.07;62.63
6208;BME280;3137;51.550;7.060;2024-01-10T09:04:12;102663.81;;;-4.97;62.68
6208;BME280;3137;51.550;7.060;2024-01-10T09:06:39;102654.25;;;-4.95;62.91
6208;BME280;3137;51.550;7.060;2024-01-10T09:09:05;102664.69;;;-4.92;62.69
6208;BME280;3137;51.550;7.060;2024-01-10T09:11:33;102668.09;;;-4.87;62.12
6208;BME280;3137;51.550;7.060;2024-01-10T09:14:05;102662.84;;;-4.78;63.11
6208;BME280;3137;51.550;7.060;2024-01-10T09:16:31;102668.13;;;-4.84;61.99
6208;BME280;3137;51.550;7.060;2024-01-10T09:18:58;102668.91;;;-4.67;62.51
6208;BME280;3137;51.550;7.060;2024-01-10T09:21:25;102670.66;;;-4.72;62.10
6208;BME280;3137;51.550;7.060;2024-01-10T09:23:53;102682.81;;;-4.68;61.83
6208;BME280;3137;51.550;7.060;2024-01-10T09:26:19;102671.41;;;-4.52;61.84
6208;BME280;3137;51.550;7.060;2024-01-10T09:28:46;102670.47;;;-4.40;61.51
6208;BME280;3137;51.550;7.060;2024-01-10T09:31:12;102666.16;;;-4.41;61.40
6208;BME280;3137;51.550;7.060;2024-01-10T09:33:40;102670.41;;;-4.31;61.00
6208;BME280;3137;51.550;7.060;2024-01-10T09:36:07;102670.38;;;-4.22;61.27
6208;BME280;3137;51.550;7.060;2024-01-10T09:38:36;102669.50;;;-4.24;61.02
6208;BME280;3137;51.550;7.060;2024-01-10T09:41:04;102678.09;;;-4.11;59.94
6208;BME280;3137;51.550;7.060;2024-01-10T09:43:31;102679.84;;;-4.07;59.91
6208;BME280;3137;51.550;7.060;2024-01-10T09:46:00;102674.56;;;-4.00;60.21
6208;BME280;3137;51.550;7.060;2024-01-10T09:48:29;102669.28;;;-3.94;59.25
6208;BME280;3137;51.550;7.060;2024-01-10T09:50:56;102669.34;;;-4.00;59.75
6208;BME280;3137;51.550;7.060;2024-01-10T09:53:24;102677.00;;;-3.80;58.25
6208;BME280;3137;51.550;7.060;2024-01-10T09:55:53;102683.09;;;-3.78;58.05
6208;BME280;3137;51.550;7.060;2024-01-10T09:58:23;102677.84;;;-3.74;57.79
6208;BME280;3137;51.550;7.060;2024-01-10T10:00:51;102674.31;;;-3.73;58.99
6208;BME280;3137;51.550;7.060;2024-01-10T10:03:19;102672.44;;;-3.57;57.35
6208;BME280;3137;51.550;7.060;2024-01-10T10:05:45;102667.09;;;-3.46;57.34
6208;BME280;3137;51.550;7.060;2024-01-10T10:08:13;102670.59;;;-3.46;57.34
6208;BME280;3137;51.550;7.060;2024-01-10T10:10:49;102673.03;;;-3.31;57.33
6208;BME280;3137;51.550;7.060;2024-01-10T10:13:28;102668.56;;;-3.19;57.19
6208;BME280;3137;51.550;7.060;2024-01-10T10:16:02;102668.31;;;-2.98;55.71
6208;BME280;3137;51.550;7.060;2024-01-10T10:18:31;102661.34;;;-2.98;56.26
6208;BME280;3137;51.550;7.060;2024-01-10T10:21:07;102657.88;;;-3.00;56.05
6208;BME280;3137;51.550;7.060;2024-01-10T10:23:37;102658.69;;;-2.95;55.78
6208;BME280;3137;51.550;7.060;2024-01-10T10:26:14;102655.19;;;-2.97;55.50
6208;BME280;3137;51.550;7.060;2024-01-10T10:28:47;102660.31;;;-2.86;55.82
6208;BME280;3137;51.550;7.060;2024-01-10T10:31:15;102661.91;;;-2.74;54.92
6208;BME280;3137;51.550;7.060;2024-01-10T10:33:45;102656.59;;;-2.68;54.39
6208;BME280;3137;51.550;7.060;2024-01-10T10:36:14;102657.38;;;-2.62;54.14
6208;BME280;3137;51.550;7.060;2024-01-10T10:38:41;102646.66;;;-2.42;54.67
6208;BME280;3137;51.550;7.060;2024-01-10T10:41:07;102645.59;;;-2.32;54.68
6208;BME280;3137;51.550;7.060;2024-01-10T10:43:38;102649.91;;;-2.28;53.50
6208;BME280;3137;51.550;7.060;2024-01-10T10:46:09;102646.34;;;-2.22;52.83
6208;BME280;3137;51.550;7.060;2024-01-10T10:48:38;102647.84;;;-2.08;52.42
6208;BME280;3137;51.550;7.060;2024-01-10T10:51:08;102645.88;;;-1.94;51.92
6208;BME280;3137;51.550;7.060;2024-01-10T10:53:36;102640.47;;;-1.83;52.55
6208;BME280;3137;51.550;7.060;2024-01-10T10:56:05;102635.16;;;-1.81;50.50
6208;BME280;3137;51.550;7.060;2024-01-10T10:58:41;102633.34;;;-1.76;50.74
6208;BME280;3137;51.550;7.060;2024-01-10T11:01:11;102635.22;;;-1.85;51.32
6208;BME280;3137;51.550;7.060;2024-01-10T11:03:39;102638.50;;;-1.70;51.18
6208;BME280;3137;51.550;7.060;2024-01-10T11:06:11;102627.00;;;-1.63;50.31
6208;BME280;3137;51.550;7.060;2024-01-10T11:08:49;102640.03;;;-1.60;50.16
6208;BME280;3137;51.550;7.060;2024-01-10T11:14:25;102637.88;;;-1.39;49.60
6208;BME280;3137;51.550;7.060;2024-01-10T11:20:15;102631.00;;;-1.00;48.39
6208;BME280;3137;51.550;7.060;2024-01-10T11:25:30;102625.41;;;-0.84;49.42
6208;BME280;3137;51.550;7.060;2024-01-10T11:27:56;102630.66;;;-0.83;48.91
6208;BME280;3137;51.550;7.060;2024-01-10T11:30:33;102626.25;;;-0.82;47.73
6208;BME280;3137;51.550;7.060;2024-01-10T11:33:09;102615.56;;;-0.73;47.71
6208;BME280;3137;51.550;7.060;2024-01-10T11:36:11;102611.44;;;-0.85;47.65
6208;BME280;3137;51.550;7.060;2024-01-10T11:38:40;102604.03;;;-0.68;48.55
6208;BME280;3137;51.550;7.060;2024-01-10T11:41:10;102610.94;;;-0.62;48.65
6208;BME280;3137;51.550;7.060;2024-01-10T11:43:37;102609.66;;;-0.44;47.94
6208;BME280;3137;51.550;7.060;2024-01-10T11:46:05;102594.53;;;-0.35;47.14
6208;BME280;3137;51.550;7.060;2024-01-10T11:48:32;102602.22;;;-0.26;47.25
6208;BME280;3137;51.550;7.060;2024-01-10T11:50:59;102590.06;;;-0.31;46.77
6208;BME280;3137;51.550;7.060;2024-01-10T11:53:53;102585.38;;;-0.19;46.35
6208;BME280;3137;51.550;7.060;2024-01-10T11:56:19;102586.59;;;-0.33;46.05
6208;BME280;3137;51.550;7.060;2024-01-10T11:59:02;102583.81;;;-0.26;46.75
6208;BME280;3137;51.550;7.060;2024-01-10T12:01:32;102580.03;;;-0.16;46.26
6208;BME280;3137;51.550;7.060;2024-01-10T12:03:59;102580.09;;;-0.17;46.23
6208;BME280;3137;51.550;7.060;2024-01-10T12:06:44;102582.75;;;-0.19;46.17
6208;BME280;3137;51.550;7.060;2024-01-10T12:09:12;102585.16;;;-0.10;46.40
6208;BME280;3137;51.550;7.060;2024-01-10T12:11:40;102587.81;;;-0.11;45.56
6208;BME280;3137;51.550;7.060;2024-01-10T12:14:10;102589.66;;;-0.15;45.43
6208;BME280;3137;51.550;7.060;2024-01-10T12:16:37;102594.63;;;-0.04;45.89
6208;BME280;3137;51.550;7.060;2024-01-10T12:19:04;102584.97;;;-0.02;44.94
6208;BME280;3137;51.550;7.060;2024-01-10T12:21:32;102588.38;;;0.02;45.43
6208;BME280;3137;51.550;7.060;2024-01-10T12:23:58;102590.63;;;0.17;45.00
6208;BME280;3137;51.550;7.060;2024-01-10T12:26:25;102590.75;;;0.11;45.48
6208;BME280;3137;51.550;7.060;2024-01-10T12:28:55;102590.75;;;0.12;45.66
6208;BME280;3137;51.550;7.060;2024-01-10T12:31:23;102589.94;;;0.09;45.48
6208;BME280;3137;51.550;7.060;2024-01-10T12:33:51;102592.22;;;0.22;45.52
6208;BME280;3137;51.550;7.060;2024-01-10T12:36:18;102581.78;;;0.19;44.75
6208;BME280;3137;51.550;7.060;2024-01-10T12:38:46;102581.13;;;0.11;44.83
6208;BME280;3137;51.550;7.060;2024-01-10T12:41:14;102587.81;;;0.23;45.54
6208;BME280;3137;51.550;7.060;2024-01-10T12:43:41;102585.06;;;0.27;44.37
6208;BME280;3137;51.550;7.060;2024-01-10T12:46:11;102585.91;;;0.29;44.72
6208;BME280;3137;51.550;7.060;2024-01-10T12:48:39;102580.25;;;0.43;45.38
6208;BME280;3137;51.550;7.060;2024-01-10T12:51:10;102580.25;;;0.43;44.81
6208;BME280;3137;51.550;7.060;2024-01-10T12:53:37;102576.81;;;0.41;44.33
6208;BME280;3137;51.550;7.060;2024-01-10T12:56:06;102571.69;;;0.35;45.28
6208;BME280;3137;51.550;7.060;2024-01-10T12:58:34;102574.06;;;0.45;45.07
6208;BME280;3137;51.550;7.060;2024-01-10T13:01:05;102576.47;;;0.53;44.74
6208;BME280;3137;51.550;7.060;2024-01-10T13:03:31;102579.72;;;0.63;44.29
6208;BME280;3137;51.550;7.060;2024-01-10T13:05:58;102578.09;;;0.57;44.15
6208;BME280;3137;51.550;7.060;2024-01-10T13:08:25;102576.22;;;0.62;44.60
6208;BME280;3137;51.550;7.060;2024-01-10T13:10:51;102574.25;;;0.69;44.40
6208;BME280;3137;51.550;7.060;2024-01-10T13:13:18;102574.31;;;0.67;44.81
6208;BME280;3137;51.550;7.060;2024-01-10T13:15:48;102569.31;;;0.58;44.33
6208;BME280;3137;51.550;7.060;2024-01-10T13:18:15;102574.22;;;0.70;44.31
6208;BME280;3137;51.550;7.060;2024-01-10T13:20:42;102567.44;;;0.63;43.76
6208;BME280;3137;51.550;7.060;2024-01-10T13:23:09;102569.19;;;0.63;44.96
6208;BME280;3137;51.550;7.060;2024-01-10T13:25:36;102569.25;;;0.60;43.99